createdAt,value
2018-06-10T00:01:37.903Z,97.60
2018-06-10T00:04:06.216Z,95.30
2018-06-10T00:06:34.551Z,86.60
2018-06-10T00:09:02.983Z,87.00
2018-06-10T00:11:31.319Z,90.50
2018-06-10T00:13:59.623Z,90.20
2018-06-10T00:16:27.987Z,90.90
2018-06-10T00:18:56.307Z,89.60
2018-06-10T00:21:24.648Z,91.20
2018-06-10T00:23:52.975Z,91.40
2018-06-10T00:26:21.315Z,90.70
2018-06-10T00:28:55.108Z,93.60
2018-06-10T00:31:23.451Z,93.10
2018-06-10T00:33:51.771Z,93.30
2018-06-10T00:36:20.109Z,93.40
2018-06-10T00:38:48.439Z,92.90
2018-06-10T00:41:16.783Z,92.10
2018-06-10T00:43:45.112Z,93.70
2018-06-10T00:46:13.479Z,94.00
2018-06-10T00:48:41.811Z,94.30
2018-06-10T00:53:38.207Z,94.50
2018-06-10T00:56:18.043Z,95.00
2018-06-10T01:01:14.449Z,95.90
2018-06-10T01:03:42.790Z,94.60
2018-06-10T01:06:11.235Z,95.00
2018-06-10T01:08:39.570Z,95.50
2018-06-10T01:11:07.923Z,97.00
2018-06-10T01:13:36.252Z,96.80
2018-06-10T01:16:04.611Z,96.40
2018-06-10T01:18:32.939Z,96.20
2018-06-10T01:21:01.283Z,96.20
2018-06-10T01:23:29.618Z,96.00
2018-06-10T01:25:57.967Z,96.00
2018-06-10T01:28:28.942Z,95.30
2018-06-10T01:30:58.531Z,95.80
2018-06-10T01:33:27.275Z,95.20
2018-06-10T01:35:55.627Z,94.60
2018-06-10T01:38:23.956Z,94.60
2018-06-10T01:40:52.347Z,94.90
2018-06-10T01:43:20.684Z,94.60
2018-06-10T01:45:49.191Z,93.90
2018-06-10T01:48:17.519Z,94.60
2018-06-10T01:50:45.851Z,94.90
2018-06-10T01:53:14.195Z,95.30
2018-06-10T01:55:42.529Z,95.20
2018-06-10T01:58:10.868Z,94.50
2018-06-10T02:00:39.195Z,94.60
2018-06-10T02:03:07.531Z,94.70
2018-06-10T02:05:35.855Z,94.90
2018-06-10T02:08:04.205Z,95.50
2018-06-10T02:10:32.523Z,95.10
2018-06-10T02:13:00.872Z,95.40
2018-06-10T02:15:29.199Z,96.00
2018-06-10T02:17:57.575Z,95.50
2018-06-10T02:20:25.895Z,95.20
2018-06-10T02:22:54.239Z,96.30
2018-06-10T02:25:22.555Z,96.00
2018-06-10T02:27:50.895Z,95.80
2018-06-10T02:30:19.215Z,95.70
2018-06-10T02:32:47.556Z,96.30
2018-06-10T02:35:15.879Z,96.20
2018-06-10T02:37:44.225Z,95.50
2018-06-10T02:40:12.550Z,96.20
2018-06-10T02:42:40.911Z,95.40
2018-06-10T02:45:09.235Z,95.90
2018-06-10T02:47:37.594Z,96.30
2018-06-10T02:50:05.943Z,96.50
2018-06-10T02:52:34.279Z,96.00
2018-06-10T02:55:02.621Z,95.90
2018-06-10T02:57:30.974Z,96.50
2018-06-10T02:59:59.307Z,96.60
2018-06-10T03:02:27.663Z,96.10
2018-06-10T03:04:55.983Z,95.60
2018-06-10T03:07:24.330Z,96.10
2018-06-10T03:09:52.655Z,96.30
2018-06-10T03:12:21.007Z,96.40
2018-06-10T03:14:49.331Z,96.30
2018-06-10T03:17:17.675Z,96.50
2018-06-10T03:19:46.143Z,97.10
2018-06-10T03:22:14.491Z,95.90
2018-06-10T03:24:42.823Z,96.80
2018-06-10T03:27:11.175Z,96.40
2018-06-10T03:29:39.503Z,95.90
2018-06-10T03:32:07.851Z,96.20
2018-06-10T03:34:36.186Z,96.00
2018-06-10T03:37:04.555Z,96.20
2018-06-10T03:42:00.955Z,96.40
2018-06-10T03:44:29.291Z,96.80
2018-06-10T03:46:57.663Z,97.10
2018-06-10T03:49:26.004Z,96.70
2018-06-10T03:51:54.340Z,97.20
2018-06-10T03:54:22.690Z,96.90
2018-06-10T03:56:51.032Z,97.00
2018-06-10T03:59:19.382Z,97.10
2018-06-10T04:01:47.723Z,96.90
2018-06-10T04:04:16.085Z,96.90
2018-06-10T04:06:44.410Z,97.10
2018-06-10T04:09:12.750Z,97.10
2018-06-10T04:11:41.082Z,97.00
2018-06-10T04:14:09.423Z,97.00
2018-06-10T04:16:37.751Z,97.30
2018-06-10T04:19:06.202Z,97.20
2018-06-10T04:21:34.534Z,97.50
2018-06-10T04:24:02.900Z,97.10
2018-06-10T04:26:31.230Z,96.90
2018-06-10T04:28:59.583Z,97.70
2018-06-10T04:31:27.907Z,97.30
2018-06-10T04:33:56.261Z,97.10
2018-06-10T04:36:24.587Z,97.10
2018-06-10T04:38:52.930Z,96.90
2018-06-10T04:41:21.251Z,96.90
2018-06-10T04:43:49.603Z,97.30
2018-06-10T04:46:17.955Z,97.10
2018-06-10T04:48:46.295Z,97.10
2018-06-10T04:51:14.643Z,97.10
2018-06-10T04:53:42.988Z,97.60
2018-06-10T04:56:11.312Z,97.70
2018-06-10T04:58:39.728Z,97.80
2018-06-10T05:01:08.067Z,97.30
2018-06-10T05:03:36.426Z,97.20
2018-06-10T05:06:04.827Z,97.50
2018-06-10T05:08:33.167Z,97.30
2018-06-10T05:11:01.504Z,97.90
2018-06-10T05:13:29.855Z,98.00
2018-06-10T05:15:58.179Z,97.90
2018-06-10T05:18:26.535Z,98.10
2018-06-10T05:20:54.863Z,98.40
2018-06-10T05:25:51.271Z,97.90
2018-06-10T05:28:19.615Z,98.60
2018-06-10T05:30:47.939Z,97.70
2018-06-10T05:33:16.293Z,97.90
2018-06-10T05:35:44.625Z,98.00
2018-06-10T05:38:12.999Z,97.70
2018-06-10T05:40:41.324Z,97.60
2018-06-10T05:43:09.670Z,97.40
2018-06-10T05:45:38.035Z,97.70
2018-06-10T05:48:06.927Z,97.90
2018-06-10T05:50:35.263Z,97.60
2018-06-10T05:53:03.586Z,97.40
2018-06-10T05:55:31.929Z,97.00
2018-06-10T05:58:00.263Z,97.20
2018-06-10T06:00:28.623Z,96.70
2018-06-10T06:02:56.962Z,96.20
2018-06-10T06:05:25.311Z,96.00
2018-06-10T06:07:53.638Z,95.60
2018-06-10T06:10:21.992Z,95.60
2018-06-10T06:12:50.326Z,97.10
2018-06-10T06:15:18.667Z,96.60
2018-06-10T06:17:46.994Z,96.60
2018-06-10T06:20:15.344Z,96.40
2018-06-10T06:22:43.671Z,96.60
2018-06-10T06:25:12.015Z,97.70
2018-06-10T06:27:40.339Z,97.00
2018-06-10T06:30:08.683Z,96.90
2018-06-10T06:32:37.009Z,96.50
2018-06-10T06:35:05.367Z,95.70
2018-06-10T06:37:33.704Z,94.50
2018-06-10T06:40:02.051Z,94.70
2018-06-10T06:42:30.379Z,94.90
2018-06-10T06:44:58.774Z,93.70
2018-06-10T06:47:27.119Z,93.40
2018-06-10T06:49:55.459Z,92.90
2018-06-10T06:52:23.779Z,92.20
2018-06-10T06:54:52.131Z,92.90
2018-06-10T06:57:20.458Z,92.50
2018-06-10T06:59:48.800Z,91.40
2018-06-10T07:02:17.131Z,90.60
2018-06-10T07:04:45.477Z,90.20
2018-06-10T07:07:13.804Z,91.00
2018-06-10T07:09:42.149Z,89.50
2018-06-10T07:12:10.483Z,89.90
2018-06-10T07:14:38.825Z,90.30
2018-06-10T07:17:07.151Z,90.20
2018-06-10T07:19:35.499Z,89.30
2018-06-10T07:22:03.814Z,89.70
2018-06-10T07:24:32.155Z,90.00
2018-06-10T07:27:00.479Z,89.50
2018-06-10T07:29:28.858Z,88.60
2018-06-10T07:31:57.193Z,89.10
2018-06-10T07:34:25.539Z,91.00
2018-06-10T07:36:53.859Z,90.30
2018-06-10T07:39:22.195Z,90.40
2018-06-10T07:41:50.523Z,89.20
2018-06-10T07:44:18.998Z,88.30
2018-06-10T07:46:47.347Z,88.20
2018-06-10T07:49:15.701Z,88.50
2018-06-10T07:51:44.046Z,86.70
2018-06-10T07:54:12.369Z,87.20
2018-06-10T07:56:40.736Z,87.30
2018-06-10T07:59:09.062Z,89.40
2018-06-10T08:01:37.406Z,88.80
2018-06-10T08:04:05.746Z,88.90
2018-06-10T08:06:34.111Z,89.20
2018-06-10T08:09:02.459Z,89.20
2018-06-10T08:11:30.815Z,90.80
2018-06-10T08:13:59.170Z,90.80
2018-06-10T08:16:27.535Z,89.80
2018-06-10T08:18:55.867Z,90.50
2018-06-10T08:21:24.220Z,91.50
2018-06-10T08:23:52.554Z,91.40
2018-06-10T08:26:20.895Z,91.30
2018-06-10T08:28:49.231Z,92.00
2018-06-10T08:31:17.580Z,91.70
2018-06-10T08:33:45.915Z,91.50
2018-06-10T08:36:14.456Z,92.00
2018-06-10T08:38:42.795Z,92.60
2018-06-10T08:41:11.147Z,92.40
2018-06-10T08:43:39.479Z,91.70
2018-06-10T08:46:07.840Z,90.50
2018-06-10T08:48:36.184Z,90.50
2018-06-10T08:51:04.523Z,90.70
2018-06-10T08:53:32.836Z,90.60
2018-06-10T08:56:01.187Z,91.50
2018-06-10T08:58:29.507Z,91.40
2018-06-10T09:00:57.845Z,91.70
2018-06-10T09:03:26.171Z,92.50
2018-06-10T09:05:54.527Z,92.30
2018-06-10T09:08:22.843Z,92.20
2018-06-10T09:10:51.179Z,91.70
2018-06-10T09:13:19.503Z,90.70
2018-06-10T09:15:47.839Z,90.60
2018-06-10T09:18:16.167Z,91.00
2018-06-10T09:20:44.513Z,89.30
2018-06-10T09:23:12.839Z,90.70
2018-06-10T09:25:41.180Z,88.00
2018-06-10T09:28:09.518Z,88.50
2018-06-10T09:30:37.859Z,87.80
2018-06-10T09:33:06.183Z,89.00
2018-06-10T09:35:34.583Z,87.90
2018-06-10T09:38:02.903Z,88.70
2018-06-10T09:40:31.267Z,85.90
2018-06-10T09:42:59.591Z,86.60
2018-06-10T09:45:27.931Z,86.90
2018-06-10T09:47:56.287Z,87.50
2018-06-10T09:50:24.643Z,86.80
2018-06-10T09:52:52.983Z,86.00
2018-06-10T09:55:21.414Z,84.90
2018-06-10T10:00:22.764Z,85.60
2018-06-10T10:02:51.138Z,85.40
2018-06-10T10:05:19.575Z,85.90
2018-06-10T10:07:47.955Z,86.10
2018-06-10T10:10:16.363Z,86.20
2018-06-10T10:12:44.715Z,87.70
2018-06-10T10:15:13.055Z,87.00
2018-06-10T10:17:41.403Z,87.80
2018-06-10T10:20:09.751Z,88.00
2018-06-10T10:22:38.111Z,86.20
2018-06-10T10:25:06.485Z,86.60
2018-06-10T10:27:34.839Z,86.30
2018-06-10T10:30:03.207Z,86.30
2018-06-10T10:32:31.563Z,85.00
2018-06-10T10:34:59.937Z,85.10
2018-06-10T10:37:28.286Z,85.90
2018-06-10T10:39:56.618Z,86.30
2018-06-10T10:42:25.047Z,83.80
2018-06-10T10:44:53.359Z,82.90
2018-06-10T10:47:21.723Z,82.90
2018-06-10T10:49:50.047Z,82.20
2018-06-10T10:52:18.402Z,80.10
2018-06-10T10:54:46.806Z,79.60
2018-06-10T10:57:15.153Z,80.00
2018-06-10T10:59:43.476Z,80.30
2018-06-10T11:02:11.817Z,80.40
2018-06-10T11:04:40.133Z,82.80
2018-06-10T11:07:08.539Z,80.80
2018-06-10T11:09:36.860Z,80.30
2018-06-10T11:12:05.250Z,82.10
2018-06-10T11:14:33.598Z,81.40
2018-06-10T11:17:02.020Z,80.90
2018-06-10T11:19:30.351Z,79.40
2018-06-10T11:21:58.711Z,79.10
2018-06-10T11:24:27.035Z,80.20
2018-06-10T11:26:55.409Z,77.90
2018-06-10T11:29:23.715Z,77.20
2018-06-10T11:31:52.051Z,77.50
2018-06-10T11:34:20.364Z,77.10
2018-06-10T11:36:48.800Z,76.60
2018-06-10T11:39:17.122Z,76.60
2018-06-10T11:41:45.467Z,76.90
2018-06-10T11:44:13.791Z,76.20
2018-06-10T11:46:42.143Z,78.60
2018-06-10T11:49:10.495Z,77.90
2018-06-10T11:51:38.834Z,78.10
2018-06-10T11:54:07.175Z,77.70
2018-06-10T11:56:35.495Z,77.10
2018-06-10T11:59:03.868Z,76.20
2018-06-10T12:01:32.195Z,75.80
2018-06-10T12:04:00.532Z,74.90
2018-06-10T12:06:28.851Z,74.80
2018-06-10T12:08:57.192Z,74.60
2018-06-10T12:11:25.512Z,75.10
2018-06-10T12:13:53.861Z,74.30
2018-06-10T12:16:22.183Z,74.10
2018-06-10T12:18:50.530Z,75.10
2018-06-10T12:21:18.847Z,75.30
2018-06-10T12:23:47.183Z,75.50
2018-06-10T12:26:15.508Z,74.70
2018-06-10T12:28:43.847Z,74.90
2018-06-10T12:31:12.168Z,75.10
2018-06-10T12:33:40.502Z,74.80
2018-06-10T12:36:08.827Z,76.50
2018-06-10T12:38:37.200Z,75.00
2018-06-10T12:41:05.786Z,75.40
2018-06-10T12:43:34.127Z,76.00
2018-06-10T12:46:02.475Z,75.70
2018-06-10T12:48:30.899Z,75.90
2018-06-10T12:50:59.219Z,75.20
2018-06-10T12:55:55.635Z,72.70
2018-06-10T12:58:23.975Z,73.40
2018-06-10T13:00:52.295Z,72.40
2018-06-10T13:03:20.639Z,72.80
2018-06-10T13:05:48.979Z,72.10
2018-06-10T13:08:17.326Z,73.90
2018-06-10T13:10:45.642Z,73.80
2018-06-10T13:13:14.007Z,73.60
2018-06-10T13:15:42.340Z,72.70
2018-06-10T13:18:10.679Z,73.50
2018-06-10T13:20:39.032Z,73.10
2018-06-10T13:23:07.376Z,74.00
2018-06-10T13:25:35.702Z,72.30
2018-06-10T13:28:04.166Z,70.10
2018-06-10T13:30:32.574Z,71.90
2018-06-10T13:33:00.919Z,73.50
2018-06-10T13:35:29.253Z,73.20
2018-06-10T13:37:57.600Z,72.50
2018-06-10T13:40:25.984Z,72.10
2018-06-10T13:42:54.294Z,71.80
2018-06-10T13:45:22.610Z,72.10
2018-06-10T13:47:50.995Z,72.10
2018-06-10T13:50:19.311Z,72.70
2018-06-10T13:52:47.695Z,72.80
2018-06-10T13:55:16.071Z,72.70
2018-06-10T13:57:44.399Z,72.70
2018-06-10T14:00:12.751Z,72.10
2018-06-10T14:02:41.070Z,72.80
2018-06-10T14:05:09.421Z,72.80
2018-06-10T14:07:37.746Z,71.00
2018-06-10T14:10:06.099Z,72.60
2018-06-10T14:12:34.427Z,71.50
2018-06-10T14:15:02.771Z,71.40
2018-06-10T14:17:31.099Z,70.40
2018-06-10T14:19:59.451Z,71.00
2018-06-10T14:22:27.779Z,71.90
2018-06-10T14:24:56.131Z,71.50
2018-06-10T14:27:24.467Z,70.70
2018-06-10T14:29:52.835Z,70.40
2018-06-10T14:32:21.291Z,71.20
2018-06-10T14:34:49.640Z,71.10
2018-06-10T14:37:17.980Z,71.50
2018-06-10T14:39:46.375Z,70.30
2018-06-10T14:42:14.775Z,70.20
2018-06-10T14:44:43.170Z,70.40
2018-06-10T14:47:11.546Z,71.50
2018-06-10T14:49:39.891Z,71.50
2018-06-10T14:52:08.330Z,72.70
2018-06-10T14:54:36.787Z,72.50
2018-06-10T14:57:05.143Z,72.60
2018-06-10T14:59:33.493Z,71.70
2018-06-10T15:02:01.833Z,70.70
2018-06-10T15:04:30.237Z,71.50
2018-06-10T15:06:58.587Z,71.40
2018-06-10T15:09:27.023Z,71.40
2018-06-10T15:11:55.359Z,71.20
2018-06-10T15:14:23.715Z,70.80
2018-06-10T15:16:52.104Z,70.10
2018-06-10T15:19:20.531Z,70.30
2018-06-10T15:21:48.981Z,70.20
2018-06-10T15:24:17.355Z,70.40
2018-06-10T15:26:45.710Z,71.50
2018-06-10T15:29:14.064Z,71.90
2018-06-10T15:31:42.399Z,71.30
2018-06-10T15:34:10.753Z,71.60
2018-06-10T15:36:39.203Z,71.30
2018-06-10T15:39:08.250Z,71.20
2018-06-10T15:41:36.635Z,70.50
2018-06-10T15:44:05.199Z,71.60
2018-06-10T15:49:01.680Z,71.30
2018-06-10T15:51:31.075Z,72.40
2018-06-10T15:53:59.419Z,72.50
2018-06-10T15:56:27.750Z,72.20
2018-06-10T15:58:56.096Z,72.60
2018-06-10T16:01:24.551Z,72.20
2018-06-10T16:03:53.299Z,72.70
2018-06-10T16:06:21.692Z,71.70
2018-06-10T16:08:50.015Z,71.40
2018-06-10T16:11:18.370Z,72.30
2018-06-10T16:13:46.787Z,72.00
2018-06-10T16:16:16.199Z,72.20
2018-06-10T16:18:44.537Z,72.30
2018-06-10T16:21:12.957Z,71.70
2018-06-10T16:23:41.441Z,71.40
2018-06-10T16:26:09.935Z,70.80
2018-06-10T16:28:38.310Z,71.80
2018-06-10T16:31:06.664Z,72.30
2018-06-10T16:33:41.849Z,71.60
2018-06-10T16:36:10.202Z,72.80
2018-06-10T16:38:38.563Z,72.80
2018-06-10T16:41:07.015Z,72.90
2018-06-10T16:43:35.346Z,73.10
2018-06-10T16:46:03.711Z,73.40
2018-06-10T16:48:32.035Z,72.60
2018-06-10T16:51:00.491Z,73.20
2018-06-10T16:53:28.843Z,72.10
2018-06-10T16:55:57.240Z,72.30
2018-06-10T16:58:25.552Z,70.90
2018-06-10T17:00:53.901Z,71.40
2018-06-10T17:03:22.339Z,71.20
2018-06-10T17:05:50.680Z,71.70
2018-06-10T17:08:19.007Z,71.90
2018-06-10T17:10:47.363Z,71.70
2018-06-10T17:13:15.683Z,71.20
2018-06-10T17:15:44.146Z,71.20
2018-06-10T17:18:12.515Z,71.50
2018-06-10T17:20:40.905Z,71.80
2018-06-10T17:23:09.235Z,72.20
2018-06-10T17:25:37.595Z,70.90
2018-06-10T17:28:05.927Z,72.20
2018-06-10T17:30:34.354Z,71.40
2018-06-10T17:33:02.711Z,71.10
2018-06-10T17:35:31.063Z,71.10
2018-06-10T17:37:59.446Z,71.60
2018-06-10T17:40:27.800Z,72.00
2018-06-10T17:42:56.131Z,72.40
2018-06-10T17:45:24.483Z,72.40
2018-06-10T17:47:52.831Z,71.30
2018-06-10T17:50:21.191Z,71.70
2018-06-10T17:52:49.513Z,72.10
2018-06-10T17:55:17.883Z,73.20
2018-06-10T17:57:46.219Z,73.20
2018-06-10T18:00:14.567Z,73.10
2018-06-10T18:02:42.906Z,72.60
2018-06-10T18:05:11.279Z,72.80
2018-06-10T18:07:39.623Z,73.60
2018-06-10T18:12:36.041Z,73.30
2018-06-10T18:15:04.393Z,73.60
2018-06-10T18:17:32.735Z,73.90
2018-06-10T18:20:01.151Z,74.20
2018-06-10T18:22:29.495Z,74.40
2018-06-10T18:24:57.827Z,74.60
2018-06-10T18:27:26.171Z,75.10
2018-06-10T18:29:54.510Z,75.00
2018-06-10T18:32:22.859Z,75.70
2018-06-10T18:34:51.183Z,76.10
2018-06-10T18:37:19.532Z,76.30
2018-06-10T18:39:47.867Z,76.20
2018-06-10T18:42:16.212Z,76.30
2018-06-10T18:44:44.540Z,76.70
2018-06-10T18:47:12.923Z,76.40
2018-06-10T18:49:41.251Z,76.70
2018-06-10T18:52:09.595Z,77.10
2018-06-10T18:54:37.933Z,77.40
2018-06-10T18:57:06.291Z,77.10
2018-06-10T18:59:34.670Z,77.30
2018-06-10T19:02:02.991Z,77.40
2018-06-10T19:04:31.315Z,77.40
2018-06-10T19:06:59.675Z,77.40
2018-06-10T19:09:28.039Z,77.70
2018-06-10T19:11:56.402Z,77.70
2018-06-10T19:14:24.735Z,78.10
2018-06-10T19:16:53.087Z,77.90
2018-06-10T19:19:21.419Z,77.90
2018-06-10T19:21:49.763Z,77.90
2018-06-10T19:24:18.087Z,78.30
2018-06-10T19:26:46.454Z,78.60
2018-06-10T19:29:14.816Z,79.00
2018-06-10T19:31:43.135Z,79.10
2018-06-10T19:34:11.463Z,79.40
2018-06-10T19:36:39.811Z,80.00
2018-06-10T19:39:08.547Z,80.50
2018-06-10T19:41:36.947Z,80.50
2018-06-10T19:44:05.314Z,80.20
2018-06-10T19:46:33.671Z,80.50
2018-06-10T19:49:02.003Z,81.00
2018-06-10T19:51:30.347Z,81.90
2018-06-10T19:53:58.675Z,81.00
2018-06-10T19:56:27.039Z,80.70
2018-06-10T19:58:55.367Z,81.00
2018-06-10T20:01:23.715Z,81.30
2018-06-10T20:03:52.039Z,81.00
2018-06-10T20:06:20.369Z,81.00
2018-06-10T20:08:48.710Z,80.70
2018-06-10T20:11:17.038Z,80.90
2018-06-10T20:13:45.388Z,80.70
2018-06-10T20:16:13.715Z,81.20
2018-06-10T20:18:42.060Z,81.10
2018-06-10T20:21:10.407Z,80.90
2018-06-10T20:23:38.747Z,81.10
2018-06-10T20:26:07.083Z,81.50
2018-06-10T20:28:35.425Z,81.50
2018-06-10T20:31:03.767Z,81.90
2018-06-10T20:33:32.110Z,81.50
2018-06-10T20:36:00.474Z,81.80
2018-06-10T20:38:28.834Z,81.80
2018-06-10T20:40:57.173Z,81.90
2018-06-10T20:43:25.523Z,81.80
2018-06-10T20:45:53.867Z,81.90
2018-06-10T20:48:22.228Z,82.10
2018-06-10T20:50:50.540Z,82.40
2018-06-10T20:53:18.870Z,82.70
2018-06-10T20:55:47.187Z,82.70
2018-06-10T20:58:15.530Z,82.90
2018-06-10T21:00:43.843Z,83.10
2018-06-10T21:03:12.194Z,83.20
2018-06-10T21:05:40.511Z,83.30
2018-06-10T21:08:08.848Z,83.40
2018-06-10T21:10:37.163Z,83.20
2018-06-10T21:13:05.519Z,83.40
2018-06-10T21:15:33.834Z,83.30
2018-06-10T21:18:02.176Z,83.30
2018-06-10T21:20:30.495Z,83.80
2018-06-10T21:22:58.871Z,83.90
2018-06-10T21:25:27.179Z,84.50
2018-06-10T21:27:55.555Z,84.60
2018-06-10T21:30:23.872Z,84.70
2018-06-10T21:32:52.211Z,84.90
2018-06-10T21:35:20.538Z,84.80
2018-06-10T21:37:48.879Z,84.60
2018-06-10T21:40:17.198Z,84.50
2018-06-10T21:42:45.535Z,84.80
2018-06-10T21:45:13.855Z,85.10
2018-06-10T21:47:42.215Z,85.30
2018-06-10T21:50:10.544Z,85.70
2018-06-10T21:52:38.887Z,85.90
2018-06-10T21:55:07.203Z,85.80
2018-06-10T21:57:35.562Z,86.00
2018-06-10T22:00:03.983Z,85.90
2018-06-10T22:02:32.367Z,85.90
2018-06-10T22:05:00.689Z,86.00
2018-06-10T22:07:29.036Z,86.00
2018-06-10T22:09:57.383Z,86.10
2018-06-10T22:12:25.711Z,86.10
2018-06-10T22:14:54.047Z,86.20
2018-06-10T22:17:22.384Z,86.50
2018-06-10T22:19:50.715Z,86.60
2018-06-10T22:22:19.043Z,86.60
2018-06-10T22:24:47.414Z,86.70
2018-06-10T22:27:15.714Z,86.70
2018-06-10T22:29:44.054Z,86.60
2018-06-10T22:32:12.368Z,86.50
2018-06-10T22:34:40.703Z,86.70
2018-06-10T22:37:09.019Z,87.10
2018-06-10T22:39:37.355Z,87.20
2018-06-10T22:42:05.706Z,87.50
2018-06-10T22:44:34.035Z,87.60
2018-06-10T22:47:02.396Z,87.60
2018-06-10T22:49:30.735Z,87.80
2018-06-10T22:51:59.071Z,87.90
2018-06-10T22:54:37.763Z,88.00
2018-06-10T22:57:06.565Z,87.90
2018-06-10T22:59:34.929Z,88.30
2018-06-10T23:02:03.799Z,88.40
2018-06-10T23:04:32.163Z,88.40
2018-06-10T23:07:00.489Z,88.50
2018-06-10T23:09:28.841Z,88.80
2018-06-10T23:11:57.171Z,89.00
2018-06-10T23:14:25.507Z,89.00
2018-06-10T23:16:53.833Z,89.10
2018-06-10T23:21:50.227Z,89.60
2018-06-10T23:24:18.671Z,89.70
2018-06-10T23:26:47.019Z,90.00
2018-06-10T23:29:15.367Z,90.30
2018-06-10T23:31:43.695Z,90.40
2018-06-10T23:34:12.043Z,90.40
2018-06-10T23:36:40.387Z,90.60
2018-06-10T23:39:08.738Z,90.60
2018-06-10T23:41:37.954Z,90.70
2018-06-10T23:44:06.298Z,90.90
2018-06-10T23:46:34.647Z,90.90
2018-06-10T23:49:02.979Z,91.00
2018-06-10T23:51:31.306Z,91.30
2018-06-10T23:53:59.643Z,91.40
2018-06-10T23:56:27.963Z,91.60
2018-06-10T23:58:56.299Z,91.60
